»·PEaware :: AUZ081 PHNL-KLAX

AUZ081 :: PHNL-KLAX

FLIGHT INFORMATION

Flight Status: Arrived
Operator:
Australian Airlines
More flights by this operator :: More flights under this callsign
Pilot: Kim E. (65)
Aircraft: BOEING 747-400 (WINGLETS)
(B744)
More flights by this aircraft type
Origin: PHNL Honolulu Intl
United States
Destination: KLAX Los Angeles Intl
United States
More flights between these airports :: More routes between these airports
Route: PHNL MKK4 CLUTS R465 CIVIT R585 AUDIA C1155 MQO RZS SADDE6 KLAX
File this flight plan on PilotEdge
Remarks: / V /
Altitude:
(Current/Filed)
41,000ft
Speed:
(Current/Filed)
520kts
Departed: 19-Oct-13 04:47 AM
Arrived: 19-Oct-13 10:13 AM
Distance/Time
Traveled:
2216nm/5:26
Distance/Time
To Go:
Arrived

Flight Plot

Page will automatically refresh every two minutes.


Map Options




Map Legend


Flown Route
Filed Route
Departure Airport
Arrival Airport
Navaid (VOR, NDB)
Fix

Horizontal Profiles

Position Reports

Time Latitude Longitude Heading Altitude Ground
Speed
19-Oct-13 04:42 21.166200 -157.277800 0 15841ft 0kts
19-Oct-13 04:43 21.159437 -157.152503 67 20332ft 432kts
19-Oct-13 04:44 21.230969 -157.044320 47 24076ft 460kts
19-Oct-13 04:45 21.314221 -156.934799 48 27390ft 487kts
19-Oct-13 04:46 21.401187 -156.819900 48 30274ft 508kts
19-Oct-13 04:47 21.491471 -156.700131 48 32790ft 523kts
19-Oct-13 04:48 21.582360 -156.579581 48 35798ft 516kts
19-Oct-13 04:49 21.672266 -156.459773 48 38137ft 511kts
19-Oct-13 04:50 21.761027 -156.341068 48 39916ft 508kts
19-Oct-13 04:51 21.849957 -156.222252 48 40960ft 511kts
19-Oct-13 04:52 21.938429 -156.103485 48 40969ft 509kts
19-Oct-13 04:53 22.027055 -155.984363 48 40975ft 509kts
19-Oct-13 04:54 22.115542 -155.865231 49 40977ft 509kts
19-Oct-13 04:55 22.204095 -155.745460 49 40976ft 509kts
19-Oct-13 04:56 22.292965 -155.625469 49 40977ft 509kts
19-Oct-13 04:57 22.381102 -155.505762 49 40977ft 509kts
19-Oct-13 04:58 22.468798 -155.386846 48 40976ft 506kts
19-Oct-13 04:59 22.556087 -155.268045 48 40971ft 496kts
19-Oct-13 05:00 22.641814 -155.150976 48 40961ft 498kts
19-Oct-13 05:01 22.728061 -155.033087 48 40960ft 498kts
19-Oct-13 05:02 22.814257 -154.914732 48 40960ft 498kts
19-Oct-13 05:03 22.900441 -154.796210 48 40958ft 500kts
19-Oct-13 05:04 22.986499 -154.677861 48 40955ft 499kts
19-Oct-13 05:05 23.064924 -154.553537 53 40953ft 499kts
19-Oct-13 05:06 23.141485 -154.427704 53 40950ft 499kts
19-Oct-13 05:07 23.217800 -154.302138 53 40948ft 498kts
19-Oct-13 05:08 23.294170 -154.176062 53 40947ft 498kts
19-Oct-13 05:09 23.370423 -154.049617 53 40947ft 501kts
19-Oct-13 05:10 23.446998 -153.922899 53 40946ft 500kts
19-Oct-13 05:11 23.523201 -153.796147 53 40946ft 500kts
19-Oct-13 05:12 23.599907 -153.668553 53 40947ft 499kts
19-Oct-13 05:13 23.675753 -153.541690 53 40946ft 499kts
19-Oct-13 05:14 23.751548 -153.414762 53 40947ft 499kts
19-Oct-13 05:15 23.827115 -153.288496 53 40946ft 498kts
19-Oct-13 05:16 23.903214 -153.160799 53 40946ft 498kts
19-Oct-13 05:17 23.978489 -153.034286 53 40947ft 500kts
19-Oct-13 05:18 24.054705 -152.906306 54 40947ft 501kts
19-Oct-13 05:19 24.130598 -152.777964 54 40946ft 500kts
19-Oct-13 05:20 24.206316 -152.650252 54 40945ft 500kts
19-Oct-13 05:21 24.282059 -152.521580 54 40944ft 500kts
19-Oct-13 05:22 24.357521 -152.393535 54 40944ft 500kts
19-Oct-13 05:23 24.432223 -152.266224 54 40944ft 498kts
19-Oct-13 05:24 24.507151 -152.137888 54 40944ft 498kts
19-Oct-13 05:25 24.582234 -152.009999 54 40944ft 498kts
19-Oct-13 05:26 24.657072 -151.881145 54 40945ft 500kts
19-Oct-13 05:27 24.731600 -151.753017 54 40944ft 500kts
19-Oct-13 05:28 24.806699 -151.623147 54 40944ft 501kts
19-Oct-13 05:29 24.881600 -151.493270 54 40944ft 500kts
19-Oct-13 05:30 24.955957 -151.364555 54 40944ft 500kts
19-Oct-13 05:31 25.030333 -151.234708 54 40944ft 499kts
19-Oct-13 05:32 25.104687 -151.105248 54 40944ft 498kts
19-Oct-13 05:33 25.178160 -150.976356 54 40945ft 498kts
19-Oct-13 05:34 25.252009 -150.846795 54 40944ft 499kts
19-Oct-13 05:35 25.325943 -150.716645 54 40944ft 500kts
19-Oct-13 05:36 25.399875 -150.585755 55 40944ft 501kts
19-Oct-13 05:37 25.474221 -150.454692 55 40944ft 501kts
19-Oct-13 05:38 25.548082 -150.323701 55 40944ft 499kts
19-Oct-13 05:39 25.621340 -150.193650 55 40945ft 501kts
19-Oct-13 05:40 25.694755 -150.062417 55 40946ft 497kts
19-Oct-13 05:41 25.768113 -149.930938 55 40950ft 507kts
19-Oct-13 05:42 25.843298 -149.796167 55 40955ft 510kts
19-Oct-13 05:43 25.917641 -149.661921 55 40955ft 515kts
19-Oct-13 05:44 25.992873 -149.526455 55 40955ft 514kts
19-Oct-13 05:45 26.067711 -149.390745 55 40955ft 514kts
19-Oct-13 05:46 26.142684 -149.254794 55 40955ft 513kts
19-Oct-13 05:48 26.216891 -149.119429 55 40956ft 512kts
19-Oct-13 05:49 26.290610 -148.984516 55 40955ft 511kts
19-Oct-13 05:50 26.364717 -148.848934 56 40955ft 511kts
19-Oct-13 05:51 26.436713 -148.716207 56 40955ft 512kts
19-Oct-13 05:52 26.512408 -148.577217 55 40955ft 513kts
19-Oct-13 05:53 26.586460 -148.440324 56 40956ft 512kts
19-Oct-13 05:54 26.660266 -148.303663 56 40955ft 513kts
19-Oct-13 05:55 26.733923 -148.166437 56 40956ft 512kts
19-Oct-13 05:56 26.806819 -148.030168 56 40954ft 512kts
19-Oct-13 05:57 26.879686 -147.893988 56 40955ft 512kts
19-Oct-13 05:58 26.952766 -147.756410 56 40955ft 511kts
19-Oct-13 05:59 27.025942 -147.618910 56 40955ft 513kts
19-Oct-13 06:00 27.098518 -147.481617 56 40955ft 512kts
19-Oct-13 06:01 27.171267 -147.343674 56 40955ft 512kts
19-Oct-13 06:02 27.242161 -147.205061 60 40956ft 514kts
19-Oct-13 06:03 27.305397 -147.059892 61 40957ft 514kts
19-Oct-13 06:03 27.357266 -146.938802 61 40958ft 514kts
19-Oct-13 06:05 27.429732 -146.770066 61 40958ft 513kts
19-Oct-13 06:05 27.481309 -146.648960 62 40958ft 513kts
19-Oct-13 06:07 27.553676 -146.479671 61 40958ft 513kts
19-Oct-13 06:07 27.605096 -146.358547 62 40958ft 514kts
19-Oct-13 06:08 27.666240 -146.213269 62 40958ft 515kts
19-Oct-13 06:09 27.728321 -146.066410 62 40958ft 515kts
19-Oct-13 06:10 27.789439 -145.920210 62 40958ft 514kts
19-Oct-13 06:11 27.850554 -145.774372 62 40958ft 514kts
19-Oct-13 06:12 27.911524 -145.627678 62 40958ft 513kts
19-Oct-13 06:13 27.971910 -145.482058 62 40967ft 513kts
19-Oct-13 06:14 28.032682 -145.335434 62 40962ft 514kts
19-Oct-13 06:15 28.093063 -145.188235 62 40993ft 515kts
19-Oct-13 06:16 28.153711 -145.041065 62 40980ft 517kts
19-Oct-13 06:17 28.214022 -144.893011 62 40967ft 515kts
19-Oct-13 06:18 28.274248 -144.745545 62 40991ft 515kts
19-Oct-13 06:19 28.334286 -144.597258 63 40970ft 514kts
19-Oct-13 06:20 28.393949 -144.449727 62 40972ft 513kts
19-Oct-13 06:21 28.435315 -144.347420 63 41053ft 515kts
19-Oct-13 07:49 30.580872 -138.411630 69 41127ft 470kts
19-Oct-13 07:50 30.624886 -138.268851 70 41127ft 470kts
19-Oct-13 07:51 30.666946 -138.132998 69 41126ft 470kts
19-Oct-13 07:52 30.710849 -137.989867 70 41127ft 470kts
19-Oct-13 07:53 30.754320 -137.846829 70 41127ft 470kts
19-Oct-13 07:54 30.798251 -137.703502 70 41126ft 470kts
19-Oct-13 07:55 30.840933 -137.561970 70 41126ft 470kts
19-Oct-13 07:56 30.884425 -137.418115 70 41126ft 470kts
19-Oct-13 07:57 30.927307 -137.275364 70 41127ft 470kts
19-Oct-13 07:58 30.970267 -137.130779 70 41127ft 470kts
19-Oct-13 07:59 31.011502 -136.993141 70 41126ft 470kts
19-Oct-13 08:00 31.053594 -136.850464 71 41126ft 470kts
19-Oct-13 08:01 31.096101 -136.706104 70 41126ft 470kts
19-Oct-13 08:02 31.137590 -136.565201 71 41127ft 470kts
19-Oct-13 08:03 31.179459 -136.421118 71 41127ft 470kts
19-Oct-13 08:04 31.221890 -136.275968 71 41126ft 470kts
19-Oct-13 08:05 31.263650 -136.131207 71 41127ft 470kts
19-Oct-13 08:06 31.305152 -135.986410 71 41127ft 470kts
19-Oct-13 08:07 31.346090 -135.844535 71 41127ft 470kts
19-Oct-13 08:08 31.387508 -135.698538 71 41127ft 470kts
19-Oct-13 08:09 31.427250 -135.559147 71 41127ft 470kts
19-Oct-13 08:10 31.467134 -135.417857 71 41127ft 470kts
19-Oct-13 08:11 31.508118 -135.271561 71 41126ft 470kts
19-Oct-13 08:12 31.549417 -135.125717 71 41126ft 470kts
19-Oct-13 08:13 31.580071 -135.015245 71 41127ft 470kts
19-Oct-13 08:14 31.620217 -134.869963 71 41127ft 470kts
19-Oct-13 08:15 31.660643 -134.724375 72 41127ft 470kts
19-Oct-13 08:16 31.700616 -134.578013 72 41127ft 470kts
19-Oct-13 08:17 31.740861 -134.431502 72 41126ft 470kts
19-Oct-13 08:18 31.780049 -134.287041 72 41124ft 471kts
19-Oct-13 08:19 31.819480 -134.140440 72 41121ft 470kts
19-Oct-13 08:20 31.859264 -133.993766 72 41122ft 471kts
19-Oct-13 08:21 31.898228 -133.847555 72 41121ft 471kts
19-Oct-13 08:22 31.937620 -133.700263 72 41120ft 471kts
19-Oct-13 08:23 31.976689 -133.552690 72 41120ft 471kts
19-Oct-13 08:24 32.015477 -133.404861 72 41385ft 474kts
19-Oct-13 08:25 32.054446 -133.257299 72 42108ft 475kts
19-Oct-13 08:26 32.092912 -133.109448 72 42113ft 474kts
19-Oct-13 08:27 32.131210 -132.961810 72 42114ft 473kts
19-Oct-13 08:28 32.169281 -132.815294 72 42117ft 473kts
19-Oct-13 08:29 32.207441 -132.665789 73 42116ft 473kts
19-Oct-13 08:30 32.244784 -132.518447 73 42117ft 473kts
19-Oct-13 08:31 32.282778 -132.369477 73 42117ft 473kts
19-Oct-13 08:32 32.320398 -132.220324 73 42116ft 473kts
19-Oct-13 08:33 32.357487 -132.071630 73 42116ft 473kts
19-Oct-13 08:34 32.395075 -131.922598 73 42117ft 473kts
19-Oct-13 08:35 32.431933 -131.773404 73 42116ft 472kts
19-Oct-13 08:36 32.469091 -131.623566 73 42117ft 474kts
19-Oct-13 08:37 32.505609 -131.475625 73 42115ft 473kts
19-Oct-13 08:38 32.541611 -131.327605 73 42117ft 473kts
19-Oct-13 08:39 32.578534 -131.177046 73 42117ft 474kts
19-Oct-13 08:40 32.614441 -131.027599 73 42117ft 473kts
19-Oct-13 08:41 32.650555 -130.877485 73 42117ft 473kts
19-Oct-13 08:42 32.686492 -130.727288 74 42117ft 473kts
19-Oct-13 08:43 32.721635 -130.578208 74 42117ft 473kts
19-Oct-13 08:44 32.757817 -130.426105 74 42117ft 473kts
19-Oct-13 08:45 32.792885 -130.275877 74 42117ft 473kts
19-Oct-13 08:46 32.828184 -130.124556 74 42117ft 473kts
19-Oct-13 08:49 32.892185 -129.847519 74 42117ft 473kts
19-Oct-13 08:50 32.927015 -129.696688 74 42117ft 473kts
19-Oct-13 08:51 32.961436 -129.545294 74 42117ft 473kts
19-Oct-13 08:52 32.995403 -129.394073 74 42117ft 473kts
19-Oct-13 08:53 33.029744 -129.243149 74 42117ft 473kts
19-Oct-13 08:54 33.063412 -129.091746 74 42117ft 473kts
19-Oct-13 08:55 33.097455 -128.939555 74 42117ft 473kts
19-Oct-13 08:56 33.130943 -128.787855 75 42117ft 473kts
19-Oct-13 08:57 33.163888 -128.636718 75 42117ft 473kts
19-Oct-13 08:58 33.197450 -128.484575 75 42116ft 473kts
19-Oct-13 08:59 33.230016 -128.333291 75 42112ft 472kts
19-Oct-13 09:00 33.262953 -128.181121 75 42113ft 472kts
19-Oct-13 09:01 33.295589 -128.028747 75 42114ft 473kts
19-Oct-13 09:02 33.327585 -127.877219 75 42106ft 470kts
19-Oct-13 09:03 33.360146 -127.724867 75 42103ft 470kts
19-Oct-13 09:04 33.391557 -127.574428 75 42081ft 470kts
19-Oct-13 09:05 33.423138 -127.423175 75 42091ft 466kts
19-Oct-13 09:06 33.454304 -127.273172 75 42088ft 469kts
19-Oct-13 09:07 33.485424 -127.120931 76 42079ft 467kts
19-Oct-13 09:08 33.516753 -126.970455 76 42080ft 467kts
19-Oct-13 09:09 33.547503 -126.818708 77 42079ft 471kts
19-Oct-13 09:10 33.578364 -126.665597 77 42079ft 476kts
19-Oct-13 09:11 33.609746 -126.509987 78 42083ft 483kts
19-Oct-13 09:12 33.640769 -126.352639 78 42084ft 486kts
19-Oct-13 09:13 33.672255 -126.194795 78 42083ft 487kts
19-Oct-13 09:14 33.703247 -126.036159 78 42084ft 493kts
19-Oct-13 09:15 33.734472 -125.876035 78 42085ft 491kts
19-Oct-13 09:16 33.765457 -125.716376 78 42085ft 487kts
19-Oct-13 09:17 33.795893 -125.556877 78 42086ft 489kts
19-Oct-13 09:18 33.826244 -125.398748 78 42086ft 487kts
19-Oct-13 09:19 33.856131 -125.240189 78 42086ft 486kts
19-Oct-13 09:20 33.886001 -125.080914 78 42085ft 495kts
19-Oct-13 09:21 33.916311 -124.919982 77 42085ft 492kts
19-Oct-13 09:22 33.946898 -124.757773 78 42088ft 489kts
19-Oct-13 09:23 33.976522 -124.598017 76 42086ft 497kts
19-Oct-13 09:24 34.007160 -124.434501 76 42087ft 499kts
19-Oct-13 09:25 34.037328 -124.270974 76 42087ft 503kts
19-Oct-13 09:26 34.067362 -124.106461 75 42087ft 499kts
19-Oct-13 09:27 34.097269 -123.943579 76 41666ft 498kts
19-Oct-13 09:28 34.126441 -123.781002 76 41098ft 496kts
19-Oct-13 09:29 34.155821 -123.618560 76 41092ft 496kts
19-Oct-13 09:30 34.184650 -123.455399 76 41091ft 497kts
19-Oct-13 09:31 34.213366 -123.292083 76 41089ft 498kts
19-Oct-13 09:32 34.242988 -123.128076 69 41065ft 498kts
19-Oct-13 09:33 34.300230 -122.975710 60 41080ft 496kts
19-Oct-13 09:34 34.364252 -122.829463 60 41079ft 494kts
19-Oct-13 09:35 34.429251 -122.682135 59 41080ft 494kts
19-Oct-13 09:36 34.493762 -122.535373 60 41081ft 492kts
19-Oct-13 09:37 34.557977 -122.388185 60 41080ft 492kts
19-Oct-13 09:38 34.622496 -122.240795 60 41081ft 494kts
19-Oct-13 09:39 34.685962 -122.093927 60 41079ft 494kts
19-Oct-13 09:40 34.750394 -121.945073 60 41080ft 495kts
19-Oct-13 09:41 34.814263 -121.796343 60 41088ft 492kts
19-Oct-13 09:42 34.877785 -121.647364 60 41079ft 494kts
19-Oct-13 09:43 34.941057 -121.499618 60 41090ft 493kts
19-Oct-13 09:44 35.003722 -121.351096 60 41092ft 491kts
19-Oct-13 09:45 35.066943 -121.201975 60 41089ft 494kts
19-Oct-13 09:46 35.129152 -121.053825 60 41117ft 488kts
19-Oct-13 09:47 35.190979 -120.906024 61 41105ft 493kts
19-Oct-13 09:48 35.205165 -120.744390 107 41116ft 501kts
19-Oct-13 09:50 35.040884 -120.476039 132 39687ft 494kts
19-Oct-13 09:51 34.948244 -120.351936 132 38466ft 494kts
19-Oct-13 09:52 34.855523 -120.228593 131 37247ft 492kts
19-Oct-13 09:53 34.763042 -120.105581 131 36028ft 491kts
19-Oct-13 09:54 34.677451 -119.992294 130 34851ft 466kts
19-Oct-13 09:55 34.589446 -119.875934 133 33724ft 437kts
19-Oct-13 09:56 34.510186 -119.769095 125 31307ft 421kts
19-Oct-13 09:57 34.459840 -119.679854 121 29658ft 409kts
19-Oct-13 09:58 34.397126 -119.564334 124 27066ft 405kts
19-Oct-13 09:59 34.336988 -119.454692 123 25184ft 381kts
19-Oct-13 10:00 34.278575 -119.347291 123 20981ft 375kts
19-Oct-13 10:01 34.222186 -119.244491 124 17344ft 352kts
19-Oct-13 10:02 34.169839 -119.149268 124 13879ft 327kts
19-Oct-13 10:03 34.120918 -119.058373 116 11128ft 327kts
19-Oct-13 10:04 34.089930 -118.955475 106 11015ft 324kts
19-Oct-13 10:05 34.065401 -118.863747 106 10868ft 249kts
19-Oct-13 10:06 34.046211 -118.791656 107 9638ft 216kts
19-Oct-13 10:07 34.035117 -118.721354 97 8005ft 211kts
19-Oct-13 10:08 34.028603 -118.652101 97 7022ft 208kts
19-Oct-13 10:09 34.022115 -118.583220 97 7006ft 207kts
19-Oct-13 10:10 34.016251 -118.520768 97 6997ft 185kts
19-Oct-13 10:11 34.011795 -118.459209 88 7005ft 185kts
19-Oct-13 10:12 34.018484 -118.397885 82 7009ft 185kts
19-Oct-13 10:13 34.025471 -118.336418 82 6989ft 184kts
19-Oct-13 10:14 34.032566 -118.275085 82 6915ft 181kts
19-Oct-13 10:15 34.039158 -118.216472 82 5022ft 172kts
19-Oct-13 10:16 34.045546 -118.157475 82 4982ft 177kts
19-Oct-13 10:17 34.051562 -118.100022 82 5001ft 170kts
19-Oct-13 10:18 34.026112 -118.063026 169 4088ft 165kts
19-Oct-13 10:19 33.985016 -118.067228 241 3983ft 157kts
19-Oct-13 10:20 33.980275 -118.116647 264 4001ft 148kts
19-Oct-13 10:21 33.976036 -118.165795 262 3911ft 147kts
19-Oct-13 10:22 33.971268 -118.214725 262 3151ft 145kts
19-Oct-13 10:23 33.966417 -118.262700 261 2385ft 145kts
19-Oct-13 10:24 33.961486 -118.311022 261 1609ft 145kts
19-Oct-13 10:25 33.956584 -118.358887 261 866ft 149kts
19-Oct-13 10:30 33.948839 -118.426425 227 138ft 0kts
19-Oct-13 10:31 33.946436 -118.427693 175 138ft 13kts
19-Oct-13 10:32 33.945405 -118.428882 273 138ft 0kts

Navigation Log

Ident Type
1. PHNL Airport
2. CLUTS Fix
3. CEBEN Fix
4. CIVIT Fix
5. FLEXX Fix
6. GITLE Fix
7. GALIP Fix
8. AUDIA Fix
9. MQO Navaid
10. RZS Navaid
11. KLAX Airport